createdAt,value
2018-12-22T00:00:17.174Z,1.3
2018-12-22T00:05:17.263Z,2
2018-12-22T00:10:22.469Z,1.6
2018-12-22T00:15:17.574Z,0.3
2018-12-22T00:20:22.857Z,1.1
2018-12-22T00:25:17.862Z,0.8
2018-12-22T00:30:17.775Z,1.6
2018-12-22T00:35:17.685Z,2
2018-12-22T00:40:18.143Z,2
2018-12-22T00:45:17.025Z,0.6
2018-12-22T00:50:17.026Z,0.7
2018-12-22T00:55:17.113Z,1.6
2018-12-22T01:00:22.172Z,0.5
2018-12-22T01:05:22.373Z,2.1
2018-12-22T01:10:17.527Z,1.4
2018-12-22T01:15:17.597Z,2.5
2018-12-22T01:20:17.694Z,0.5
2018-12-22T01:25:18.046Z,1.4
2018-12-22T01:30:18.511Z,2.3
2018-12-22T01:35:17.643Z,0.8
2018-12-22T01:40:22.074Z,0.5
2018-12-22T01:45:22.084Z,1
2018-12-22T01:50:17.533Z,1.3
2018-12-22T01:55:18.550Z,0.3
2018-12-22T02:00:18.805Z,0.3
2018-12-22T02:05:17.734Z,1.3
2018-12-22T02:10:26.912Z,1.1
2018-12-22T02:15:21.981Z,0.5
2018-12-22T02:20:17.212Z,0.8
2018-12-22T02:25:17.701Z,1.3
2018-12-22T02:30:17.793Z,1
2018-12-22T02:35:17.982Z,0.9
2018-12-22T02:40:17.607Z,1.3
2018-12-22T02:45:17.727Z,0.8
2018-12-22T02:50:17.686Z,2
2018-12-22T02:55:17.716Z,0.9
2018-12-22T03:00:18.065Z,0.6
2018-12-22T03:05:17.427Z,1
2018-12-22T03:10:18.618Z,0.9
2018-12-22T03:15:19.015Z,1.2
2018-12-22T03:20:17.407Z,2.7
2018-12-22T03:25:17.619Z,1
2018-12-22T03:30:17.773Z,1
2018-12-22T03:35:18.090Z,0.6
2018-12-22T03:40:17.244Z,0.6
2018-12-22T03:45:22.453Z,1.8
2018-12-22T03:50:18.462Z,0.9
2018-12-22T03:55:17.611Z,1
2018-12-22T04:00:17.692Z,0.8
2018-12-22T04:05:23.832Z,1.2
2018-12-22T04:10:17.352Z,0.9
2018-12-22T04:15:17.681Z,0.5
2018-12-22T04:20:22.369Z,1.1
2018-12-22T04:25:17.379Z,1.5
2018-12-22T04:30:17.700Z,0.4
2018-12-22T04:35:17.738Z,2
2018-12-22T04:40:17.014Z,2.2
2018-12-22T04:45:18.589Z,0.7
2018-12-22T04:50:22.742Z,1.3
2018-12-22T04:55:17.871Z,2.4
2018-12-22T05:00:21.837Z,2.9
2018-12-22T05:05:18.057Z,4.8
2018-12-22T05:10:17.237Z,5.6
2018-12-22T05:15:17.567Z,6.1
2018-12-22T05:20:17.847Z,6.8
2018-12-22T05:25:18.084Z,6.9
2018-12-22T05:30:17.016Z,6.4
2018-12-22T05:35:16.963Z,6.7
2018-12-22T05:40:18.553Z,7.7
2018-12-22T05:45:17.565Z,7.5
2018-12-22T05:50:17.842Z,7.1
2018-12-22T05:55:18.071Z,7
2018-12-22T06:00:17.097Z,7.8
2018-12-22T06:05:17.132Z,7.2
2018-12-22T06:10:17.261Z,7.1
2018-12-22T06:15:17.350Z,4.8
2018-12-22T06:20:17.703Z,7.5
2018-12-22T06:25:18.101Z,8.3
2018-12-22T06:30:17.569Z,3
2018-12-22T06:35:17.693Z,4.8
2018-12-22T06:40:16.879Z,8.2
2018-12-22T06:45:22.827Z,8.2
2018-12-22T06:50:17.708Z,4.9
2018-12-22T06:55:17.627Z,8.6
2018-12-22T07:00:18.203Z,8.7
2018-12-22T07:05:17.318Z,8.1
2018-12-22T07:10:17.556Z,8.7
2018-12-22T07:15:17.474Z,3.7
2018-12-22T07:20:18.585Z,8.6
2018-12-22T07:25:17.476Z,4.9
2018-12-22T07:30:25.861Z,8.5
2018-12-22T07:35:17.116Z,8.5
2018-12-22T07:40:17.223Z,7.3
2018-12-22T07:45:17.162Z,8.6
2018-12-22T07:50:22.442Z,7.9
2018-12-22T07:55:17.353Z,8.6
2018-12-22T08:00:18.551Z,8.9
2018-12-22T08:05:17.585Z,8.1
2018-12-22T08:10:22.795Z,9.2
2018-12-22T08:15:23.112Z,9
2018-12-22T08:20:17.200Z,8.7
2018-12-22T08:25:17.362Z,8.2
2018-12-22T08:30:17.479Z,8.9
2018-12-22T08:35:17.381Z,8.9
2018-12-22T08:40:17.489Z,9.2
2018-12-22T08:45:17.401Z,9.1
2018-12-22T08:50:17.782Z,9
2018-12-22T08:55:17.697Z,9.2
2018-12-22T09:00:22.627Z,9.2
2018-12-22T09:05:17.627Z,8.5
2018-12-22T09:10:17.768Z,4.5
2018-12-22T09:15:17.676Z,9
2018-12-22T09:20:22.854Z,8.7
2018-12-22T09:25:17.764Z,7.8
2018-12-22T09:30:17.646Z,6.3
2018-12-22T09:35:17.866Z,8.2
2018-12-22T09:40:17.053Z,8.5
2018-12-22T09:45:17.646Z,8.4
2018-12-22T09:50:17.799Z,3.7
2018-12-22T09:55:17.977Z,8.5
2018-12-22T10:00:17.394Z,4.2
2018-12-22T10:05:17.542Z,8.1
2018-12-22T10:10:17.994Z,7.8
2018-12-22T10:15:17.031Z,7.7
2018-12-22T10:20:17.130Z,7.5
2018-12-22T10:25:17.119Z,8
2018-12-22T10:30:17.599Z,7.1
2018-12-22T10:35:17.601Z,4.1
2018-12-22T10:40:17.898Z,7.2
2018-12-22T10:45:16.858Z,7.7
2018-12-22T10:50:18.019Z,8.1
2018-12-22T10:55:16.967Z,8.1
2018-12-22T11:00:17.163Z,3.2
2018-12-22T11:05:18.520Z,7
2018-12-22T11:10:17.890Z,7.5
2018-12-22T11:15:18.519Z,5
2018-12-22T11:20:22.796Z,8.8
2018-12-22T11:25:17.884Z,9
2018-12-22T11:30:18.095Z,8.7
2018-12-22T11:35:17.070Z,6.9
2018-12-22T11:40:22.245Z,9.3
2018-12-22T11:45:17.455Z,9
2018-12-22T11:50:17.664Z,8.8
2018-12-22T11:55:17.900Z,9.4
2018-12-22T12:00:18.125Z,9.6
2018-12-22T12:05:17.253Z,9.9
2018-12-22T12:10:17.685Z,10.8
2018-12-22T12:15:17.804Z,10.7
2018-12-22T12:20:17.099Z,10.1
2018-12-22T12:25:17.031Z,7.1
2018-12-22T12:30:16.970Z,10.2
2018-12-22T12:35:17.981Z,10.3
2018-12-22T12:40:22.278Z,10.2
2018-12-22T12:45:17.231Z,10.7
2018-12-22T12:50:17.460Z,11.1
2018-12-22T12:55:17.593Z,11.6
2018-12-22T13:00:18.639Z,7.5
2018-12-22T13:05:17.659Z,11.2
2018-12-22T13:10:17.989Z,10.7
2018-12-22T13:15:17.268Z,11.9
2018-12-22T13:20:17.644Z,8.5
2018-12-22T13:25:18.931Z,11.7
2018-12-22T13:30:16.848Z,9.8
2018-12-22T13:35:18.040Z,11.6
2018-12-22T13:40:17.393Z,11.8
2018-12-22T13:45:18.567Z,12
2018-12-22T13:50:18.151Z,8.9
2018-12-22T13:55:17.325Z,11.9
2018-12-22T14:00:17.600Z,12.1
2018-12-22T14:05:17.565Z,12.4
2018-12-22T14:10:17.797Z,12.7
2018-12-22T14:15:17.704Z,9.4
2018-12-22T14:20:18.023Z,12.5
2018-12-22T14:25:17.106Z,5.4
2018-12-22T14:30:17.445Z,12.9
2018-12-22T14:35:17.555Z,7.9
2018-12-22T14:40:17.722Z,13.7
2018-12-22T14:45:17.872Z,11.9
2018-12-22T14:50:17.992Z,13
2018-12-22T14:55:17.012Z,9.5
2018-12-22T15:00:16.914Z,12.6
2018-12-22T15:05:16.980Z,13
2018-12-22T15:10:17.223Z,13.3
2018-12-22T15:15:22.421Z,7.7
2018-12-22T15:20:17.977Z,13.3
2018-12-22T15:25:17.111Z,12.9
2018-12-22T15:30:17.240Z,9
2018-12-22T15:35:17.530Z,12.9
2018-12-22T15:40:17.859Z,9.4
2018-12-22T15:45:17.970Z,12.5
2018-12-22T15:50:17.067Z,13.2
2018-12-22T15:55:17.022Z,8
2018-12-22T16:00:17.236Z,12.3
2018-12-22T16:05:17.496Z,12.9
2018-12-22T16:10:17.937Z,12.1
2018-12-22T16:15:27.371Z,11.8
2018-12-22T16:20:23.748Z,6.6
2018-12-22T16:25:18.106Z,12.5
2018-12-22T16:30:17.094Z,7.4
2018-12-22T16:35:22.063Z,11.9
2018-12-22T16:40:17.486Z,7.4
2018-12-22T16:45:17.604Z,12.2
2018-12-22T16:50:17.773Z,12.2
2018-12-22T16:55:17.653Z,11.3
2018-12-22T17:00:17.573Z,11.7
2018-12-22T17:05:17.445Z,11.7
2018-12-22T17:10:17.532Z,10.9
2018-12-22T17:15:23.815Z,11.9
2018-12-22T17:20:17.062Z,10.5
2018-12-22T17:25:17.279Z,10.4
2018-12-22T17:30:17.311Z,10.8
2018-12-22T17:35:17.212Z,11
2018-12-22T17:40:17.554Z,11
2018-12-22T17:45:18.191Z,10.5
2018-12-22T17:50:17.650Z,11.6
2018-12-22T17:55:23.111Z,11
2018-12-22T18:00:17.514Z,9.2
2018-12-22T18:05:22.504Z,12.1
2018-12-22T18:10:17.639Z,13.4
2018-12-22T18:15:17.709Z,14.1
2018-12-22T18:20:18.971Z,14.2
2018-12-22T18:25:18.077Z,14.5
2018-12-22T18:30:17.108Z,17.2
2018-12-22T18:35:17.438Z,18.3
2018-12-22T18:40:17.528Z,11.5
2018-12-22T18:45:17.690Z,18.1
2018-12-22T18:50:17.808Z,12.8
2018-12-22T18:55:18.399Z,18.6
2018-12-22T19:00:17.586Z,18.2
2018-12-22T19:05:17.626Z,18.1
2018-12-22T19:10:18.775Z,16.1
2018-12-22T19:15:17.664Z,17.4
2018-12-22T19:20:17.749Z,16.9
2018-12-22T19:25:17.664Z,17
2018-12-22T19:30:17.573Z,17.1
2018-12-22T19:35:17.809Z,17.4
2018-12-22T19:40:17.173Z,15.8
2018-12-22T19:45:17.263Z,15.6
2018-12-22T19:50:17.155Z,14.2
2018-12-22T19:55:37.084Z,13.9
2018-12-22T20:00:18.116Z,10.7
2018-12-22T20:05:17.421Z,12.8
2018-12-22T20:10:18.716Z,7.4
2018-12-22T20:15:17.904Z,12.8
2018-12-22T20:20:17.323Z,8
2018-12-22T20:25:17.331Z,8.8
2018-12-22T20:30:22.412Z,10.6
2018-12-22T20:35:17.669Z,9.1
2018-12-22T20:40:17.768Z,10
2018-12-22T20:45:17.668Z,9.9
2018-12-22T20:50:17.579Z,10
2018-12-22T20:55:17.492Z,9.2
2018-12-22T21:00:17.578Z,5.3
2018-12-22T21:05:17.577Z,8.9
2018-12-22T21:10:17.680Z,8.9
2018-12-22T21:15:18.053Z,5.5
2018-12-22T21:20:17.278Z,8.7
2018-12-22T21:25:17.426Z,9.4
2018-12-22T21:30:17.319Z,8.9
2018-12-22T21:35:17.588Z,6.6
2018-12-22T21:40:18.238Z,10
2018-12-22T21:45:17.444Z,9.3
2018-12-22T21:50:17.345Z,9.6
2018-12-22T21:55:17.595Z,10.4
2018-12-22T22:00:17.495Z,10.7
2018-12-22T22:05:17.599Z,9.6
2018-12-22T22:10:17.935Z,10
2018-12-22T22:15:21.913Z,10.2
2018-12-22T22:20:17.274Z,7.1
2018-12-22T22:25:22.344Z,10.4
2018-12-22T22:30:17.212Z,8
2018-12-22T22:35:17.360Z,11.1
2018-12-22T22:40:17.554Z,11.1
2018-12-22T22:45:23.872Z,11.6
2018-12-22T22:50:17.773Z,11.8
2018-12-22T22:55:17.801Z,6.4
2018-12-22T23:00:18.183Z,13.2
2018-12-22T23:05:17.310Z,12.4
2018-12-22T23:10:17.759Z,8.9
2018-12-22T23:15:17.754Z,9
2018-12-22T23:20:17.047Z,13.4
2018-12-22T23:25:17.427Z,6.7
2018-12-22T23:30:17.567Z,14.4
2018-12-22T23:35:17.726Z,14
2018-12-22T23:40:16.997Z,14.8
2018-12-22T23:45:17.418Z,13.3
2018-12-22T23:50:17.335Z,9.7
2018-12-22T23:55:17.599Z,13.9
